Time;durP1;ratioP1;P1;durP2;ratioP2;P2;SDS_P1;SDS_P2;PMS_P1;PMS_P2;Temp;Humidity;BMP_temperature;BMP_pressure;BME280_temperature;BME280_humidity;BME280_pressure;Samples;Min_cycle;Max_cycle;Signal;HPM_P1;HPM_P2
2022/03/03 00:01:38;;;;;;;130.65;59.40;;;0.80;99.90;;;;;;4840631;29;20571;-89
2022/03/03 00:04:04;;;;;;;129.43;56.22;;;1.60;99.90;;;;;;4856192;29;20089;-87
2022/03/03 00:06:33;;;;;;;131.57;58.17;;;0.80;99.90;;;;;;4855006;29;20491;-87
2022/03/03 00:08:58;;;;;;;127.85;54.80;;;0.70;99.90;;;;;;4856163;29;20137;-87
2022/03/03 00:11:24;;;;;;;135.15;57.80;;;1.70;99.90;;;;;;4856188;29;20217;-88
2022/03/03 00:13:50;;;;;;;131.13;57.75;;;0.10;99.90;;;;;;4869903;29;20054;-87
2022/03/03 00:16:16;;;;;;;125.97;56.78;;;0.60;99.90;;;;;;4860957;29;20475;-87
2022/03/03 00:18:41;;;;;;;136.15;58.83;;;0.50;99.90;;;;;;4840553;29;20085;-88
2022/03/03 00:21:07;;;;;;;136.80;58.88;;;0.50;99.90;;;;;;4866808;29;20054;-86
2022/03/03 00:23:33;;;;;;;128.38;58.25;;;0.60;99.90;;;;;;4844667;29;20514;-88
2022/03/03 00:25:59;;;;;;;134.40;59.20;;;0.60;99.90;;;;;;4856070;29;20053;-88
2022/03/03 00:28:25;;;;;;;145.32;61.45;;;1.30;99.90;;;;;;4856326;29;20050;-87
2022/03/03 00:30:51;;;;;;;139.77;59.42;;;0.60;99.90;;;;;;4839911;29;20448;-88
2022/03/03 00:33:16;;;;;;;128.00;58.22;;;0.60;99.90;;;;;;4841750;29;20092;-88
2022/03/03 00:35:42;;;;;;;140.93;60.25;;;0.70;99.90;;;;;;4841613;29;20050;-88
2022/03/03 00:38:08;;;;;;;142.27;59.72;;;0.70;99.90;;;;;;4840325;29;20050;-86
2022/03/03 00:40:34;;;;;;;138.27;60.22;;;1.10;99.90;;;;;;4855414;29;20076;-86
2022/03/03 00:43:00;;;;;;;139.45;59.17;;;0.70;99.90;;;;;;4841486;29;20495;-86
2022/03/03 00:45:25;;;;;;;137.63;59.45;;;2.00;99.90;;;;;;4855555;29;20076;-85
2022/03/03 00:47:51;;;;;;;132.60;58.85;;;1.60;99.90;;;;;;4854927;29;20057;-87
2022/03/03 00:50:17;;;;;;;134.43;56.40;;;1.90;99.90;;;;;;4840134;29;20058;-87
2022/03/03 00:52:42;;;;;;;142.27;59.63;;;0.60;99.90;;;;;;4839086;29;20062;-88
2022/03/03 00:55:08;;;;;;;131.48;58.50;;;0.70;99.90;;;;;;4839786;29;20057;-89
2022/03/03 00:57:36;;;;;;;131.10;57.08;;;0.60;99.90;;;;;;4839276;29;20403;-88
2022/03/03 01:00:04;;;;;;;134.43;57.97;;;0.60;99.90;;;;;;4841116;29;20050;-88
2022/03/03 01:02:29;;;;;;;132.30;57.50;;;0.60;99.90;;;;;;4839647;29;20467;-88
2022/03/03 01:04:55;;;;;;;135.80;58.08;;;0.60;99.90;;;;;;4840678;29;20157;-87
2022/03/03 01:07:21;;;;;;;127.07;57.72;;;2.00;99.90;;;;;;4841566;29;20041;-87
2022/03/03 01:09:46;;;;;;;138.63;58.03;;;0.50;99.90;;;;;;4845297;29;20057;-87
2022/03/03 01:12:12;;;;;;;134.60;56.67;;;0.50;99.90;;;;;;4849909;29;20053;-88
2022/03/03 01:14:38;;;;;;;129.85;57.72;;;1.60;99.90;;;;;;4840076;29;20041;-87
2022/03/03 01:17:04;;;;;;;141.65;58.95;;;0.50;99.90;;;;;;4840896;29;20133;-87
2022/03/03 01:19:30;;;;;;;134.40;58.40;;;0.50;99.90;;;;;;4840635;29;20125;-88
2022/03/03 01:21:56;;;;;;;128.02;56.70;;;0.40;99.90;;;;;;4854453;29;20058;-87
2022/03/03 01:24:22;;;;;;;131.05;57.10;;;1.40;99.90;;;;;;4839807;29;20065;-86
2022/03/03 01:26:47;;;;;;;123.07;55.28;;;0.30;99.90;;;;;;4854754;29;20372;-87
2022/03/03 01:29:13;;;;;;;126.93;54.80;;;1.30;99.90;;;;;;4840617;29;20054;-85
2022/03/03 01:31:39;;;;;;;124.60;55.58;;;0.40;99.90;;;;;;4843231;29;20050;-86
2022/03/03 01:34:06;;;;;;;113.43;52.40;;;0.30;99.90;;;;;;4855709;29;20054;-87
2022/03/03 01:36:32;;;;;;;127.25;54.90;;;0.30;99.90;;;;;;4840071;29;20053;-87
2022/03/03 01:38:58;;;;;;;116.90;52.03;;;0.40;99.90;;;;;;4839437;29;20102;-88
2022/03/03 01:41:24;;;;;;;116.93;51.38;;;0.30;99.90;;;;;;4854750;29;20537;-87
2022/03/03 01:43:49;;;;;;;127.57;55.55;;;1.60;99.90;;;;;;4854957;29;20072;-86
2022/03/03 01:46:16;;;;;;;124.22;51.42;;;1.80;99.90;;;;;;4843017;29;20057;-86
2022/03/03 01:48:45;;;;;;;125.57;52.10;;;1.20;99.90;;;;;;4853860;29;20049;-86
2022/03/03 01:51:11;;;;;;;122.68;54.10;;;0.30;99.90;;;;;;4849853;29;20054;-88
2022/03/03 01:53:37;;;;;;;120.43;54.33;;;0.20;99.90;;;;;;4865393;29;20079;-85
2022/03/03 01:56:03;;;;;;;125.03;56.13;;;0.20;99.90;;;;;;4845409;29;20483;-86
2022/03/03 01:58:29;;;;;;;125.95;56.35;;;0.10;99.90;;;;;;4841037;29;20129;-87
2022/03/03 02:00:55;;;;;;;124.22;54.08;;;1.20;99.90;;;;;;4839911;29;20050;-87
2022/03/03 02:03:20;;;;;;;125.22;55.15;;;1.00;99.90;;;;;;4840032;29;20770;-87
2022/03/03 02:05:46;;;;;;;129.40;56.13;;;0.60;99.90;;;;;;4839796;29;20077;-87
2022/03/03 02:08:13;;;;;;;125.80;53.65;;;1.20;99.90;;;;;;4839951;29;20060;-86
2022/03/03 02:10:39;;;;;;;124.18;56.25;;;1.60;99.90;;;;;;4855156;29;20399;-88
2022/03/03 02:13:05;;;;;;;119.90;55.40;;;1.60;99.90;;;;;;4854426;29;20046;-86
2022/03/03 02:15:31;;;;;;;115.75;54.40;;;1.40;99.90;;;;;;4843135;29;20054;-87
2022/03/03 02:17:56;;;;;;;125.03;55.97;;;0.10;99.90;;;;;;4843841;29;20526;-88
2022/03/03 02:20:29;;;;;;;122.78;55.17;;;0.10;99.90;;;;;;4844065;29;20058;-88
2022/03/03 02:22:56;;;;;;;124.82;53.85;;;1.00;99.90;;;;;;4857684;29;20058;-88
2022/03/03 02:25:22;;;;;;;125.60;56.97;;;1.10;99.90;;;;;;4857730;29;20385;-88
2022/03/03 02:27:48;;;;;;;123.75;55.20;;;1.50;99.90;;;;;;4843418;29;20057;-87
2022/03/03 02:30:14;;;;;;;125.18;56.90;;;0.10;99.90;;;;;;4843760;29;20099;-87
2022/03/03 02:32:40;;;;;;;123.25;53.90;;;1.30;99.90;;;;;;4842226;29;20085;-86
2022/03/03 02:35:06;;;;;;;131.13;56.90;;;0.00;99.90;;;;;;4857050;29;20612;-88
2022/03/03 02:37:37;;;;;;;120.65;53.38;;;0.00;99.90;;;;;;4857307;29;20064;-88
2022/03/03 02:40:04;;;;;;;130.82;56.60;;;0.00;99.90;;;;;;4857706;29;20375;-87
2022/03/03 02:42:33;;;;;;;124.20;55.35;;;-0.10;99.90;;;;;;4843916;29;20510;-88
2022/03/03 02:44:58;;;;;;;131.50;58.85;;;-0.10;99.90;;;;;;4842295;29;20136;-89
2022/03/03 02:47:24;;;;;;;129.07;53.67;;;1.10;99.90;;;;;;4858140;29;20155;-87
2022/03/03 02:49:50;;;;;;;130.52;57.22;;;0.30;99.90;;;;;;4850564;29;20093;-85
2022/03/03 02:52:15;;;;;;;127.10;53.92;;;-0.10;99.90;;;;;;4851577;29;20049;-87
2022/03/03 02:54:41;;;;;;;121.80;54.95;;;0.80;99.90;;;;;;4846239;29;20073;-88
2022/03/03 02:59:51;;;;;;;134.30;57.00;;;1.50;99.90;;;;;;4841457;29;20062;-88
2022/03/03 03:02:17;;;;;;;133.05;57.15;;;-0.30;99.90;;;;;;4856927;29;20042;-89
2022/03/03 03:04:42;;;;;;;135.07;58.75;;;0.90;99.90;;;;;;4841819;29;20057;-89
2022/03/03 03:07:08;;;;;;;135.38;57.17;;;0.50;99.90;;;;;;4841745;29;20062;-88
2022/03/03 03:09:34;;;;;;;129.90;57.35;;;0.60;99.90;;;;;;4842718;29;20133;-87
2022/03/03 03:11:59;;;;;;;136.45;54.08;;;1.00;99.90;;;;;;4841402;29;20114;-87
2022/03/03 03:14:25;;;;;;;129.38;54.67;;;-0.40;99.90;;;;;;4843146;29;20058;-88
2022/03/03 03:16:50;;;;;;;139.27;54.53;;;-0.40;99.90;;;;;;4856426;29;20045;-87
2022/03/03 03:19:16;;;;;;;127.40;56.17;;;-0.50;99.90;;;;;;4870675;29;20058;-87
2022/03/03 03:21:42;;;;;;;133.20;56.40;;;-0.50;99.90;;;;;;4864876;29;20054;-89
2022/03/03 03:24:07;;;;;;;123.20;55.42;;;0.90;99.90;;;;;;4856545;29;20098;-88
2022/03/03 03:26:33;;;;;;;133.88;56.95;;;-0.50;99.90;;;;;;4845648;29;20060;-88
2022/03/03 03:28:59;;;;;;;142.50;57.00;;;0.40;99.90;;;;;;4849048;29;20061;-88
2022/03/03 03:31:24;;;;;;;127.78;56.00;;;0.40;99.90;;;;;;4847998;29;20068;-87
2022/03/03 03:33:50;;;;;;;131.75;56.40;;;-0.10;99.90;;;;;;4842509;29;20058;-87
2022/03/03 03:36:16;;;;;;;137.20;57.00;;;-0.30;99.90;;;;;;4841355;29;20046;-88
2022/03/03 03:38:42;;;;;;;122.47;54.05;;;-0.50;99.90;;;;;;4856483;29;20465;-88
2022/03/03 03:41:07;;;;;;;118.07;53.20;;;-0.50;99.90;;;;;;4826330;29;20058;-88
2022/03/03 03:43:33;;;;;;;122.50;53.65;;;-0.60;99.90;;;;;;4842683;29;20056;-88
2022/03/03 03:45:59;;;;;;;122.93;53.05;;;-0.70;99.90;;;;;;4841476;29;20511;-89
2022/03/03 03:48:24;;;;;;;120.55;52.33;;;-0.70;99.90;;;;;;4826242;29;20098;-90
2022/03/03 03:50:50;;;;;;;122.70;53.53;;;0.90;99.90;;;;;;4856517;29;20066;-87
2022/03/03 03:53:16;;;;;;;121.43;55.35;;;-0.60;99.90;;;;;;4856354;29;20057;-90
2022/03/03 03:55:41;;;;;;;123.63;54.42;;;0.10;99.90;;;;;;4856515;29;20503;-89
2022/03/03 03:58:07;;;;;;;122.57;57.17;;;0.70;99.90;;;;;;4840861;29;20058;-88
2022/03/03 04:00:33;;;;;;;115.28;53.88;;;0.20;99.90;;;;;;4856074;29;20057;-89
2022/03/03 04:02:58;;;;;;;128.07;57.35;;;0.90;99.90;;;;;;4856083;29;20050;-88
2022/03/03 04:05:24;;;;;;;119.60;54.28;;;-0.70;99.90;;;;;;4840936;29;20105;-89
2022/03/03 04:07:50;;;;;;;118.85;55.20;;;0.20;99.90;;;;;;4841202;29;20062;-87
2022/03/03 04:10:16;;;;;;;116.32;54.25;;;-0.60;99.90;;;;;;4825593;29;20137;-88
2022/03/03 04:12:41;;;;;;;122.68;53.55;;;0.90;99.90;;;;;;4840850;29;20065;-88
2022/03/03 04:15:08;;;;;;;114.85;54.00;;;-0.60;99.90;;;;;;4855698;29;20407;-90
2022/03/03 04:17:34;;;;;;;115.18;52.60;;;-0.60;99.90;;;;;;4842422;29;20141;-91
2022/03/03 04:19:59;;;;;;;108.78;52.72;;;-0.50;99.90;;;;;;4840773;29;20604;-87
2022/03/03 04:22:25;;;;;;;106.25;51.67;;;0.90;99.90;;;;;;4842292;29;20109;-89
2022/03/03 04:24:50;;;;;;;102.47;50.38;;;-0.50;99.90;;;;;;4856105;29;20049;-87
2022/03/03 04:27:16;;;;;;;107.22;51.42;;;-0.50;99.90;;;;;;4844252;29;20062;-88
2022/03/03 04:29:42;;;;;;;101.07;50.15;;;-0.30;99.90;;;;;;4871890;29;20058;-88
2022/03/03 04:32:08;;;;;;;102.18;50.33;;;1.10;99.90;;;;;;4855902;29;20093;-89
2022/03/03 04:34:34;;;;;;;96.38;49.35;;;-0.50;99.90;;;;;;4855467;29;20132;-89
2022/03/03 04:36:59;;;;;;;102.40;50.40;;;-0.50;99.90;;;;;;4855172;29;20129;-89
2022/03/03 04:39:25;;;;;;;96.40;47.63;;;0.60;99.90;;;;;;4855465;29;20053;-87
2022/03/03 04:41:51;;;;;;;98.60;50.95;;;0.10;99.90;;;;;;4856217;29;20054;-90
2022/03/03 04:44:16;;;;;;;103.68;49.03;;;0.20;99.90;;;;;;4825162;29;20540;-86
2022/03/03 04:46:42;;;;;;;98.55;50.13;;;-0.10;99.90;;;;;;4840329;29;20130;-88
2022/03/03 04:49:08;;;;;;;99.07;47.67;;;-0.50;99.90;;;;;;4840875;29;20156;-88
2022/03/03 04:51:39;;;;;;;88.25;46.78;;;0.50;99.90;;;;;;4841923;29;20541;-88
2022/03/03 04:54:05;;;;;;;102.22;49.65;;;-0.60;99.90;;;;;;4844315;29;20140;-89
2022/03/03 04:56:30;;;;;;;93.75;48.38;;;0.70;99.90;;;;;;4847713;29;20085;-87
2022/03/03 04:58:56;;;;;;;82.05;41.10;;;-0.60;99.90;;;;;;4858110;29;20081;-89
2022/03/03 05:01:22;;;;;;;91.30;46.72;;;0.30;99.90;;;;;;4854620;29;20054;-88
2022/03/03 05:03:47;;;;;;;87.60;45.33;;;-0.50;99.90;;;;;;4853504;29;20225;-88
2022/03/03 05:06:13;;;;;;;90.10;46.17;;;-0.40;99.90;;;;;;4863983;29;20065;-88
2022/03/03 05:08:39;;;;;;;88.80;46.40;;;0.70;99.90;;;;;;4846251;29;20050;-88
2022/03/03 05:11:05;;;;;;;83.82;44.22;;;-0.40;99.90;;;;;;4845673;29;20054;-85
2022/03/03 05:13:31;;;;;;;89.28;45.08;;;0.90;99.90;;;;;;4845850;29;20054;-89
2022/03/03 05:15:56;;;;;;;87.88;44.58;;;-0.40;99.90;;;;;;4841975;29;20058;-89
2022/03/03 05:18:22;;;;;;;83.60;45.50;;;-0.50;99.90;;;;;;4840596;29;20054;-90
2022/03/03 05:20:48;;;;;;;86.57;43.35;;;-0.50;99.90;;;;;;4840460;29;20061;-90
2022/03/03 05:23:13;;;;;;;83.47;43.90;;;-0.50;99.90;;;;;;4839887;29;20054;-90
2022/03/03 05:25:39;;;;;;;81.30;44.30;;;-0.50;99.90;;;;;;4841487;29;20388;-88
2022/03/03 05:28:05;;;;;;;87.72;44.67;;;-0.50;99.90;;;;;;4839887;29;20064;-89
2022/03/03 05:30:30;;;;;;;81.22;44.53;;;-0.60;99.90;;;;;;4841120;29;20050;-89
2022/03/03 05:32:57;;;;;;;80.97;42.63;;;-0.60;99.90;;;;;;4825457;29;20058;-88
2022/03/03 05:35:23;;;;;;;82.25;42.75;;;0.50;99.90;;;;;;4840564;29;20475;-89
2022/03/03 05:37:49;;;;;;;82.15;43.78;;;-0.60;99.90;;;;;;4841082;29;20110;-90
2022/03/03 05:40:15;;;;;;;81.93;44.08;;;-0.60;99.90;;;;;;4839324;29;20408;-91
2022/03/03 05:42:40;;;;;;;85.72;44.30;;;0.90;99.90;;;;;;4855238;29;20137;-89
2022/03/03 05:45:06;;;;;;;79.18;44.35;;;-0.70;99.90;;;;;;4841157;29;20053;-87
2022/03/03 05:47:32;;;;;;;83.05;44.88;;;-0.90;99.90;;;;;;4858721;29;20057;-89
2022/03/03 05:49:59;;;;;;;83.78;44.58;;;-0.90;99.90;;;;;;4845817;29;20110;-91
2022/03/03 05:52:24;;;;;;;82.85;44.20;;;0.60;99.90;;;;;;4845781;29;20074;-90
2022/03/03 05:54:50;;;;;;;83.53;42.83;;;0.90;99.90;;;;;;4858763;29;20456;-90
2022/03/03 05:57:30;;;;;;;82.20;44.75;;;-0.60;99.90;;;;;;4844215;29;20049;-90
2022/03/03 05:59:57;;;;;;;86.50;45.70;;;-0.90;99.90;;;;;;4843297;29;20384;-91
2022/03/03 06:02:22;;;;;;;86.88;45.60;;;-0.40;99.90;;;;;;4827605;29;20058;-88
2022/03/03 06:04:48;;;;;;;84.90;44.10;;;0.30;99.90;;;;;;4858407;29;20491;-90
2022/03/03 06:07:17;;;;;;;84.63;46.22;;;-0.90;99.90;;;;;;4843448;29;20058;-89
2022/03/03 06:09:43;;;;;;;90.47;45.67;;;-0.90;99.90;;;;;;4861851;29;20106;-88
2022/03/03 06:12:14;;;;;;;86.53;46.10;;;-0.90;99.90;;;;;;4860326;29;20046;-89
2022/03/03 06:14:41;;;;;;;84.82;45.25;;;-0.30;99.90;;;;;;4859461;29;20054;-90
2022/03/03 06:17:07;;;;;;;84.72;44.85;;;0.10;99.90;;;;;;4858392;29;20160;-90
2022/03/03 06:19:39;;;;;;;85.63;45.88;;;-0.90;99.90;;;;;;4842431;29;20058;-87
2022/03/03 06:22:08;;;;;;;80.32;44.25;;;-0.80;99.90;;;;;;4858138;29;20050;-90
2022/03/03 06:24:34;;;;;;;86.97;46.42;;;-0.40;99.90;;;;;;4843206;29;20083;-89
2022/03/03 06:27:00;;;;;;;86.03;45.10;;;-0.80;99.90;;;;;;4872876;29;20071;-88
2022/03/03 06:29:25;;;;;;;85.25;44.60;;;-0.80;99.90;;;;;;4867545;29;20061;-88
2022/03/03 06:31:51;;;;;;;90.00;46.67;;;-0.80;99.90;;;;;;4843521;29;20050;-90
2022/03/03 06:34:17;;;;;;;90.40;44.88;;;-0.80;99.90;;;;;;4856130;29;20046;-85
2022/03/03 06:36:42;;;;;;;80.43;44.75;;;-0.80;99.90;;;;;;4850741;29;20045;-89
2022/03/03 06:39:08;;;;;;;86.18;46.72;;;-0.80;99.90;;;;;;4852143;29;20050;-90
2022/03/03 06:41:34;;;;;;;78.75;44.45;;;-0.80;99.90;;;;;;4844627;29;20482;-90
2022/03/03 06:44:00;;;;;;;86.43;45.65;;;-0.80;99.90;;;;;;4843790;29;20396;-89
2022/03/03 06:46:25;;;;;;;81.32;44.85;;;-0.50;99.90;;;;;;4827359;29;20078;-89
2022/03/03 06:48:53;;;;;;;88.97;43.60;;;0.50;99.90;;;;;;4844214;29;20100;-90
2022/03/03 06:51:20;;;;;;;80.53;42.25;;;-0.70;99.90;;;;;;4842776;29;20066;-91
2022/03/03 06:53:46;;;;;;;84.88;46.20;;;-0.70;99.90;;;;;;4843203;29;20101;-90
2022/03/03 06:56:12;;;;;;;79.78;44.47;;;-0.50;99.90;;;;;;4827260;29;20112;-90
2022/03/03 06:58:39;;;;;;;73.72;41.20;;;0.10;99.90;;;;;;4827289;29;20053;-89
2022/03/03 07:01:06;;;;;;;73.47;40.35;;;0.60;99.90;;;;;;4843739;29;20046;-90
2022/03/03 07:03:35;;;;;;;66.40;35.58;;;1.10;99.90;;;;;;4843042;29;20122;-91
2022/03/03 07:06:02;;;;;;;63.45;37.88;;;2.20;99.90;;;;;;4842443;29;20399;-89
2022/03/03 07:08:28;;;;;;;65.95;39.05;;;1.60;99.90;;;;;;4841670;29;20049;-89
2022/03/03 07:10:53;;;;;;;64.13;36.97;;;2.30;99.90;;;;;;4843083;29;20049;-88
2022/03/03 07:13:19;;;;;;;63.00;37.78;;;1.70;99.90;;;;;;4827622;29;20053;-89
2022/03/03 07:15:53;;;;;;;60.20;37.30;;;1.80;99.90;;;;;;4844062;29;20072;-90
2022/03/03 07:18:20;;;;;;;63.95;36.95;;;2.00;99.90;;;;;;4844422;29;20113;-90
2022/03/03 07:21:05;;;;;;;63.25;37.92;;;1.90;99.90;;;;;;4841949;29;20627;-90
2022/03/03 07:23:44;;;;;;;59.17;34.15;;;2.90;99.90;;;;;;4842162;29;20069;-90
2022/03/03 07:26:10;;;;;;;60.63;36.10;;;2.70;99.90;;;;;;4813036;29;20110;-90
2022/03/03 07:28:39;;;;;;;59.80;36.15;;;4.40;99.90;;;;;;4826749;29;20454;-90
2022/03/03 07:31:05;;;;;;;58.33;34.78;;;4.90;99.90;;;;;;4842003;29;20062;-90
2022/03/03 07:33:44;;;;;;;54.97;33.47;;;4.10;99.90;;;;;;4842175;29;20053;-89
2022/03/03 07:36:10;;;;;;;54.20;31.73;;;4.20;99.90;;;;;;4841427;29;20137;-89
2022/03/03 07:38:37;;;;;;;53.05;34.33;;;4.80;99.90;;;;;;4840942;29;20141;-89
2022/03/03 07:41:03;;;;;;;53.33;33.92;;;5.10;99.90;;;;;;4841205;29;20054;-86
2022/03/03 07:43:28;;;;;;;51.88;34.08;;;4.90;99.90;;;;;;4841363;29;20136;-89
2022/03/03 07:45:54;;;;;;;50.00;33.03;;;6.00;99.90;;;;;;4841117;29;20483;-89
2022/03/03 07:48:22;;;;;;;48.42;30.17;;;5.30;99.90;;;;;;4841379;29;20400;-86
2022/03/03 07:50:48;;;;;;;54.20;33.28;;;5.20;99.90;;;;;;4840578;29;20515;-87
2022/03/03 07:53:14;;;;;;;51.95;33.67;;;5.00;99.90;;;;;;4855733;29;20087;-84
2022/03/03 07:55:43;;;;;;;54.00;34.83;;;6.20;99.90;;;;;;4827212;29;20291;-87
2022/03/03 07:58:18;;;;;;;55.08;34.38;;;5.20;99.90;;;;;;4841417;29;20537;-87
2022/03/03 08:00:48;;;;;;;51.92;33.10;;;5.40;99.90;;;;;;4841855;29;20133;-87
2022/03/03 08:03:19;;;;;;;52.28;34.15;;;5.60;99.90;;;;;;4841284;29;20180;-88
2022/03/03 08:05:47;;;;;;;48.47;32.63;;;5.90;99.90;;;;;;4825512;29;20178;-85
2022/03/03 08:08:19;;;;;;;50.83;33.17;;;6.10;99.90;;;;;;4825967;29;20514;-87
2022/03/03 08:10:45;;;;;;;50.33;33.85;;;6.80;99.90;;;;;;4840376;29;20145;-86
2022/03/03 08:13:13;;;;;;;51.53;34.67;;;6.80;99.90;;;;;;4825471;29;20140;-87
2022/03/03 08:15:42;;;;;;;52.33;34.42;;;7.40;99.90;;;;;;4825479;29;20054;-86
2022/03/03 08:18:10;;;;;;;50.67;33.83;;;7.30;99.90;;;;;;4841903;29;20054;-87
2022/03/03 08:20:38;;;;;;;47.40;32.83;;;7.70;99.90;;;;;;4840447;29;20058;-87
2022/03/03 08:23:04;;;;;;;50.25;34.85;;;8.30;99.90;;;;;;4840701;29;20121;-86
2022/03/03 08:25:30;;;;;;;47.38;33.53;;;8.70;99.90;;;;;;4828811;29;20086;-88
2022/03/03 08:27:56;;;;;;;47.03;35.58;;;8.50;99.90;;;;;;4833551;29;20152;-87
2022/03/03 08:30:21;;;;;;;47.00;32.95;;;9.10;99.90;;;;;;4816371;29;20148;-86
2022/03/03 08:33:08;;;;;;;45.78;32.58;;;9.10;99.90;;;;;;4830461;29;20054;-87
2022/03/03 08:35:39;;;;;;;43.55;31.08;;;9.30;99.90;;;;;;4820449;29;20105;-86
2022/03/03 08:38:17;;;;;;;43.67;31.58;;;9.60;99.90;;;;;;4800480;29;20053;-87
2022/03/03 08:40:45;;;;;;;44.42;32.00;;;10.10;99.90;;;;;;4801946;29;20049;-87
2022/03/03 08:43:11;;;;;;;44.38;31.70;;;10.40;99.90;;;;;;4813946;29;20505;-89
2022/03/03 08:45:36;;;;;;;43.28;31.98;;;10.40;99.90;;;;;;4811908;29;20518;-86
2022/03/03 08:48:08;;;;;;;43.40;31.25;;;10.30;99.90;;;;;;4797727;29;20061;-86
2022/03/03 08:50:35;;;;;;;41.25;32.00;;;10.30;99.90;;;;;;4812200;29;20054;-85
2022/03/03 08:53:01;;;;;;;41.78;30.77;;;10.50;99.90;;;;;;4826698;29;20104;-86
2022/03/03 08:55:27;;;;;;;43.63;31.15;;;10.70;99.90;;;;;;4827863;29;20108;-87
2022/03/03 08:57:53;;;;;;;44.10;30.50;;;10.70;99.90;;;;;;4840757;29;20050;-85
2022/03/03 09:00:19;;;;;;;38.35;29.52;;;10.90;99.90;;;;;;4849590;29;20060;-88
2022/03/03 09:02:45;;;;;;;39.63;29.73;;;11.10;99.90;;;;;;4848716;29;20157;-86
2022/03/03 09:05:12;;;;;;;40.75;29.83;;;11.40;99.90;;;;;;4827198;29;20060;-86
2022/03/03 09:07:38;;;;;;;39.72;29.13;;;11.10;99.90;;;;;;4829228;29;20144;-86
2022/03/03 09:10:04;;;;;;;41.13;29.10;;;10.40;99.90;;;;;;4841940;29;20491;-86
2022/03/03 09:12:30;;;;;;;36.08;27.48;;;10.20;99.90;;;;;;4825900;29;20145;-86
2022/03/03 09:14:55;;;;;;;35.60;26.67;;;10.80;99.90;;;;;;4841228;29;20085;-86
2022/03/03 09:17:21;;;;;;;35.92;26.08;;;10.60;99.90;;;;;;4840702;29;20071;-89
2022/03/03 09:19:47;;;;;;;33.97;23.95;;;10.10;99.90;;;;;;4825204;29;20505;-86
2022/03/03 09:22:13;;;;;;;34.65;25.73;;;10.70;99.90;;;;;;4842779;29;20054;-86
2022/03/03 09:24:39;;;;;;;36.03;25.50;;;10.70;99.90;;;;;;4847581;29;20052;-86
2022/03/03 09:27:05;;;;;;;33.10;24.83;;;10.30;99.90;;;;;;4847159;29;20398;-86
2022/03/03 09:29:33;;;;;;;34.60;24.83;;;11.10;99.90;;;;;;4847717;29;20084;-87
2022/03/03 09:32:02;;;;;;;33.10;25.55;;;11.30;99.90;;;;;;4830664;29;20050;-84
2022/03/03 09:34:28;;;;;;;34.92;23.83;;;11.30;99.90;;;;;;4822407;29;20053;-83
2022/03/03 09:36:55;;;;;;;30.50;24.40;;;11.20;99.90;;;;;;4836681;29;20082;-85
2022/03/03 09:39:21;;;;;;;32.00;24.42;;;10.70;99.90;;;;;;4857739;29;20049;-86
2022/03/03 09:41:47;;;;;;;32.15;24.15;;;11.10;99.90;;;;;;4848449;29;20046;-87
2022/03/03 09:44:13;;;;;;;33.13;24.08;;;11.30;99.90;;;;;;4847193;29;20060;-87
2022/03/03 09:46:40;;;;;;;32.20;24.45;;;11.40;99.90;;;;;;4831043;29;20054;-86
2022/03/03 09:49:06;;;;;;;29.10;22.75;;;11.40;99.90;;;;;;4830547;29;20061;-88
2022/03/03 09:51:32;;;;;;;29.42;22.48;;;11.20;99.90;;;;;;4831100;29;20062;-86
2022/03/03 09:53:58;;;;;;;30.25;23.40;;;11.30;99.90;;;;;;4845377;29;20076;-88
2022/03/03 09:56:24;;;;;;;30.80;22.70;;;10.80;99.90;;;;;;4846035;29;20788;-87
2022/03/03 09:58:49;;;;;;;32.05;23.15;;;10.70;99.90;;;;;;4815290;29;20053;-86
2022/03/03 10:01:17;;;;;;;28.92;21.83;;;10.90;99.90;;;;;;4830399;29;20046;-87
2022/03/03 10:03:47;;;;;;;29.70;21.33;;;10.30;99.90;;;;;;4846944;29;20133;-88
2022/03/03 10:06:13;;;;;;;29.00;22.23;;;9.80;99.90;;;;;;4831349;29;20384;-86
2022/03/03 10:08:38;;;;;;;27.13;20.73;;;9.50;99.90;;;;;;4830147;29;20058;-86
2022/03/03 10:11:04;;;;;;;27.95;20.95;;;9.50;99.90;;;;;;4829820;29;20115;-85
2022/03/03 10:13:50;;;;;;;25.20;19.63;;;9.70;99.90;;;;;;4815195;29;20073;-84
2022/03/03 10:16:24;;;;;;;26.33;21.15;;;9.70;99.90;;;;;;4833260;29;20050;-85
2022/03/03 10:19:00;;;;;;;30.27;20.40;;;9.70;99.90;;;;;;4838937;29;20148;-84
2022/03/03 10:21:28;;;;;;;26.98;20.50;;;9.60;99.90;;;;;;4859821;29;20487;-83
2022/03/03 10:23:53;;;;;;;30.20;20.85;;;9.30;99.90;;;;;;4859848;29;20787;-84
2022/03/03 10:26:19;;;;;;;23.92;19.42;;;9.30;99.90;;;;;;4845422;29;20122;-84
2022/03/03 10:28:47;;;;;;;25.08;19.90;;;9.50;99.90;;;;;;4846560;29;20089;-85
2022/03/03 10:31:15;;;;;;;26.25;19.75;;;9.70;99.90;;;;;;4846151;29;20064;-85
2022/03/03 10:33:45;;;;;;;30.42;21.23;;;9.60;99.90;;;;;;4844143;29;20058;-85
2022/03/03 10:36:19;;;;;;;26.27;20.15;;;9.60;99.90;;;;;;4842725;29;20435;-86
2022/03/03 10:38:58;;;;;;;24.00;17.08;;;9.90;99.90;;;;;;4859685;29;20347;-87
2022/03/03 10:41:30;;;;;;;24.00;18.38;;;9.90;99.90;;;;;;4860521;29;20058;-87
2022/03/03 10:43:57;;;;;;;27.98;19.17;;;9.80;99.90;;;;;;4857681;29;20395;-86
2022/03/03 10:46:23;;;;;;;28.02;19.95;;;9.40;99.90;;;;;;4857575;29;20100;-86
2022/03/03 10:48:49;;;;;;;27.73;20.13;;;9.60;99.90;;;;;;4858018;29;20476;-86
2022/03/03 10:51:15;;;;;;;24.55;18.88;;;10.00;99.90;;;;;;4857572;29;20058;-87
2022/03/03 10:53:42;;;;;;;26.65;19.38;;;10.30;99.90;;;;;;4857903;29;20809;-86
2022/03/03 10:56:12;;;;;;;25.92;19.13;;;10.10;99.90;;;;;;4857923;29;20061;-87
2022/03/03 10:58:51;;;;;;;24.42;19.05;;;10.00;99.90;;;;;;4857856;29;20140;-87
2022/03/03 11:01:24;;;;;;;22.50;14.00;;;9.80;99.90;;;;;;4858416;29;20141;-86
2022/03/03 11:03:50;;;;;;;24.88;18.00;;;9.60;99.90;;;;;;4845227;29;20078;-86
2022/03/03 11:06:24;;;;;;;26.02;19.10;;;9.70;99.90;;;;;;4843859;29;20054;-87
2022/03/03 11:08:50;;;;;;;24.27;17.65;;;9.70;99.90;;;;;;4858473;29;20052;-86
2022/03/03 11:11:16;;;;;;;25.17;19.05;;;9.50;99.90;;;;;;4861717;29;20102;-86
2022/03/03 11:13:43;;;;;;;25.92;18.98;;;9.40;99.90;;;;;;4868654;29;20054;-86
2022/03/03 11:16:08;;;;;;;29.27;20.45;;;9.50;99.90;;;;;;4876355;29;20045;-85
2022/03/03 11:18:34;;;;;;;29.52;20.08;;;9.10;99.90;;;;;;4849923;29;20137;-86
2022/03/03 11:21:00;;;;;;;25.92;18.60;;;9.10;99.90;;;;;;4858501;29;20046;-87
2022/03/03 11:23:39;;;;;;;27.38;20.40;;;9.00;99.90;;;;;;4858791;29;20061;-87
2022/03/03 11:26:06;;;;;;;24.85;19.15;;;8.80;99.90;;;;;;4859323;29;20068;-86
2022/03/03 11:28:35;;;;;;;25.77;19.00;;;8.70;99.90;;;;;;4834957;29;20386;-87
2022/03/03 11:31:21;;;;;;;27.60;18.02;;;8.80;99.90;;;;;;4849833;29;20045;-85
2022/03/03 11:33:47;;;;;;;29.33;20.02;;;8.70;99.90;;;;;;4850055;29;20034;-86
2022/03/03 11:36:18;;;;;;;26.52;19.55;;;8.70;99.90;;;;;;4864390;29;20066;-86
2022/03/03 11:38:51;;;;;;;25.88;18.10;;;8.70;99.90;;;;;;4863148;29;20078;-87
2022/03/03 11:41:17;;;;;;;30.50;21.38;;;8.80;99.90;;;;;;4859904;29;20073;-85
2022/03/03 11:43:47;;;;;;;32.83;18.48;;;9.00;99.90;;;;;;4840730;29;20060;-87
2022/03/03 11:46:13;;;;;;;23.45;15.75;;;9.10;99.90;;;;;;4870332;29;20042;-89
2022/03/03 11:48:39;;;;;;;31.33;20.08;;;9.10;99.90;;;;;;4856116;29;20052;-86
2022/03/03 11:51:31;;;;;;;27.85;17.80;;;9.30;99.90;;;;;;4874262;29;20053;-88
2022/03/03 11:54:09;;;;;;;36.90;20.13;;;9.10;99.90;;;;;;4874428;29;20053;-87
2022/03/03 11:56:35;;;;;;;30.27;21.33;;;9.00;99.90;;;;;;4875970;29;20093;-84
2022/03/03 11:59:11;;;;;;;25.02;15.80;;;8.90;99.90;;;;;;4865787;29;20049;-83
2022/03/03 12:02:09;;;;;;;30.30;20.85;;;9.00;99.90;;;;;;4881897;29;20029;-85
2022/03/03 12:04:37;;;;;;;26.40;19.52;;;9.40;99.90;;;;;;4854551;29;20053;-85
2022/03/03 12:07:03;;;;;;;28.13;20.08;;;9.10;99.90;;;;;;4879090;29;20106;-82
2022/03/03 12:09:30;;;;;;;30.98;20.88;;;9.00;99.90;;;;;;4875935;29;20443;-86
2022/03/03 12:12:13;;;;;;;26.25;20.08;;;9.10;99.90;;;;;;4871655;29;20049;-88
2022/03/03 12:14:58;;;;;;;28.73;21.13;;;9.30;99.90;;;;;;4848589;29;20109;-87
2022/03/03 12:17:54;;;;;;;31.08;19.73;;;9.30;99.90;;;;;;4860060;29;20053;-87
2022/03/03 12:20:23;;;;;;;28.38;19.35;;;9.20;99.90;;;;;;4843085;29;20052;-87
2022/03/03 12:23:16;;;;;;;25.65;18.73;;;9.20;99.90;;;;;;4859085;29;20196;-86
2022/03/03 12:25:51;;;;;;;29.23;18.65;;;9.30;99.90;;;;;;4840946;29;20147;-86
2022/03/03 12:28:36;;;;;;;24.33;17.23;;;9.40;99.90;;;;;;4859773;29;20133;-87
2022/03/03 12:31:02;;;;;;;26.95;20.35;;;9.30;99.90;;;;;;4860753;29;20056;-86
2022/03/03 12:33:31;;;;;;;15.02;10.82;;;9.40;99.90;;;;;;4849927;29;20072;-86
2022/03/03 12:36:05;;;;;;;25.52;16.95;;;9.70;99.90;;;;;;4866017;29;20053;-89